sensor_id;sensor_type;location;lat;lon;timestamp;temperature;humidity
4306;DHT22;2166;49.926;8.608;2022-12-18T00:02:05;-6.60;81.50
4306;DHT22;2166;49.926;8.608;2022-12-18T00:04:34;-6.70;81.10
4306;DHT22;2166;49.926;8.608;2022-12-18T00:07:17;-6.70;81.00
4306;DHT22;2166;49.926;8.608;2022-12-18T00:09:47;-6.80;80.90
4306;DHT22;2166;49.926;8.608;2022-12-18T00:12:37;-6.90;80.60
4306;DHT22;2166;49.926;8.608;2022-12-18T00:15:21;-6.90;80.50
4306;DHT22;2166;49.926;8.608;2022-12-18T00:17:55;-7.00;80.50
4306;DHT22;2166;49.926;8.608;2022-12-18T00:20:32;-7.10;80.40
4306;DHT22;2166;49.926;8.608;2022-12-18T00:23:10;-7.10;80.40
4306;DHT22;2166;49.926;8.608;2022-12-18T00:25:41;-7.10;80.80
4306;DHT22;2166;49.926;8.608;2022-12-18T00:28:11;-7.10;80.80
4306;DHT22;2166;49.926;8.608;2022-12-18T00:30:44;-7.10;80.80
4306;DHT22;2166;49.926;8.608;2022-12-18T00:33:12;-7.20;80.50
4306;DHT22;2166;49.926;8.608;2022-12-18T00:35:41;-7.20;80.50
4306;DHT22;2166;49.926;8.608;2022-12-18T00:38:23;-7.20;80.80
4306;DHT22;2166;49.926;8.608;2022-12-18T00:41:07;-7.30;80.40
4306;DHT22;2166;49.926;8.608;2022-12-18T00:44:08;-7.30;80.60
4306;DHT22;2166;49.926;8.608;2022-12-18T00:56:00;-7.20;81.00
4306;DHT22;2166;49.926;8.608;2022-12-18T00:58:47;-7.20;81.10
4306;DHT22;2166;49.926;8.608;2022-12-18T01:01:38;-7.20;80.80
4306;DHT22;2166;49.926;8.608;2022-12-18T01:04:12;-7.30;80.60
4306;DHT22;2166;49.926;8.608;2022-12-18T01:07:09;-7.30;80.40
4306;DHT22;2166;49.926;8.608;2022-12-18T01:10:08;-7.30;80.20
4306;DHT22;2166;49.926;8.608;2022-12-18T01:12:59;-7.40;80.00
4306;DHT22;2166;49.926;8.608;2022-12-18T01:15:33;-7.40;79.80
4306;DHT22;2166;49.926;8.608;2022-12-18T01:18:27;-7.50;79.70
4306;DHT22;2166;49.926;8.608;2022-12-18T01:20:58;-7.50;80.20
4306;DHT22;2166;49.926;8.608;2022-12-18T01:23:26;-7.50;80.30
4306;DHT22;2166;49.926;8.608;2022-12-18T01:26:24;-7.60;80.50
4306;DHT22;2166;49.926;8.608;2022-12-18T01:29:05;-7.60;80.60
4306;DHT22;2166;49.926;8.608;2022-12-18T01:31:43;-7.60;80.80
4306;DHT22;2166;49.926;8.608;2022-12-18T01:34:18;-7.60;80.60
4306;DHT22;2166;49.926;8.608;2022-12-18T01:37:03;-7.60;80.60
4306;DHT22;2166;49.926;8.608;2022-12-18T01:39:33;-7.70;80.40
4306;DHT22;2166;49.926;8.608;2022-12-18T01:42:16;-7.70;80.40
4306;DHT22;2166;49.926;8.608;2022-12-18T01:47:54;-7.70;80.60
4306;DHT22;2166;49.926;8.608;2022-12-18T01:50:34;-7.70;80.70
4306;DHT22;2166;49.926;8.608;2022-12-18T01:53:06;-7.70;81.10
4306;DHT22;2166;49.926;8.608;2022-12-18T01:55:36;-7.60;81.10
4306;DHT22;2166;49.926;8.608;2022-12-18T01:58:15;-7.60;81.30
4306;DHT22;2166;49.926;8.608;2022-12-18T02:00:48;-7.60;81.40
4306;DHT22;2166;49.926;8.608;2022-12-18T02:03:24;-7.50;81.40
4306;DHT22;2166;49.926;8.608;2022-12-18T02:05:55;-7.60;80.90
4306;DHT22;2166;49.926;8.608;2022-12-18T02:08:29;-7.60;80.80
4306;DHT22;2166;49.926;8.608;2022-12-18T02:11:02;-7.70;80.90
4306;DHT22;2166;49.926;8.608;2022-12-18T02:13:36;-7.70;81.10
4306;DHT22;2166;49.926;8.608;2022-12-18T02:16:08;-7.80;81.10
4306;DHT22;2166;49.926;8.608;2022-12-18T02:18:43;-7.80;81.10
4306;DHT22;2166;49.926;8.608;2022-12-18T02:21:20;-7.80;81.20
4306;DHT22;2166;49.926;8.608;2022-12-18T02:23:52;-7.70;81.20
4306;DHT22;2166;49.926;8.608;2022-12-18T02:26:30;-7.70;81.20
4306;DHT22;2166;49.926;8.608;2022-12-18T02:29:08;-7.80;81.10
4306;DHT22;2166;49.926;8.608;2022-12-18T02:31:39;-7.80;81.00
4306;DHT22;2166;49.926;8.608;2022-12-18T02:34:07;-7.70;81.10
4306;DHT22;2166;49.926;8.608;2022-12-18T02:36:40;-7.70;80.80
4306;DHT22;2166;49.926;8.608;2022-12-18T02:39:13;-7.70;81.10
4306;DHT22;2166;49.926;8.608;2022-12-18T02:41:56;-7.70;80.90
4306;DHT22;2166;49.926;8.608;2022-12-18T02:44:27;-7.70;80.80
4306;DHT22;2166;49.926;8.608;2022-12-18T02:46:55;-7.70;80.80
4306;DHT22;2166;49.926;8.608;2022-12-18T02:49:26;-7.60;80.90
4306;DHT22;2166;49.926;8.608;2022-12-18T02:52:02;-7.60;80.80
4306;DHT22;2166;49.926;8.608;2022-12-18T02:54:38;-7.60;80.80
4306;DHT22;2166;49.926;8.608;2022-12-18T02:57:15;-7.60;80.60
4306;DHT22;2166;49.926;8.608;2022-12-18T02:59:49;-7.60;80.50
4306;DHT22;2166;49.926;8.608;2022-12-18T03:02:23;-7.50;80.70
4306;DHT22;2166;49.926;8.608;2022-12-18T03:04:55;-7.50;80.70
4306;DHT22;2166;49.926;8.608;2022-12-18T03:07:27;-7.50;80.80
4306;DHT22;2166;49.926;8.608;2022-12-18T03:09:56;-7.60;80.80
4306;DHT22;2166;49.926;8.608;2022-12-18T03:12:28;-7.60;80.70
4306;DHT22;2166;49.926;8.608;2022-12-18T03:14:59;-7.60;80.90
4306;DHT22;2166;49.926;8.608;2022-12-18T03:17:31;-7.50;80.90
4306;DHT22;2166;49.926;8.608;2022-12-18T03:20:02;-7.50;80.80
4306;DHT22;2166;49.926;8.608;2022-12-18T03:22:32;-7.50;80.60
4306;DHT22;2166;49.926;8.608;2022-12-18T03:25:03;-7.40;80.40
4306;DHT22;2166;49.926;8.608;2022-12-18T03:27:35;-7.40;80.40
4306;DHT22;2166;49.926;8.608;2022-12-18T03:30:11;-7.40;80.50
4306;DHT22;2166;49.926;8.608;2022-12-18T03:32:41;-7.40;80.60
4306;DHT22;2166;49.926;8.608;2022-12-18T03:35:12;-7.50;80.50
4306;DHT22;2166;49.926;8.608;2022-12-18T03:37:41;-7.50;80.40
4306;DHT22;2166;49.926;8.608;2022-12-18T03:40:10;-7.60;80.40
4306;DHT22;2166;49.926;8.608;2022-12-18T03:42:42;-7.60;80.60
4306;DHT22;2166;49.926;8.608;2022-12-18T03:45:15;-7.70;80.90
4306;DHT22;2166;49.926;8.608;2022-12-18T03:47:49;-7.70;81.10
4306;DHT22;2166;49.926;8.608;2022-12-18T03:50:26;-7.70;81.30
4306;DHT22;2166;49.926;8.608;2022-12-18T03:52:56;-7.70;81.30
4306;DHT22;2166;49.926;8.608;2022-12-18T03:55:27;-7.70;81.10
4306;DHT22;2166;49.926;8.608;2022-12-18T03:58:01;-7.60;81.10
4306;DHT22;2166;49.926;8.608;2022-12-18T04:00:40;-7.60;81.00
4306;DHT22;2166;49.926;8.608;2022-12-18T04:03:10;-7.60;80.90
4306;DHT22;2166;49.926;8.608;2022-12-18T04:05:45;-7.60;80.80
4306;DHT22;2166;49.926;8.608;2022-12-18T04:08:17;-7.60;80.80
4306;DHT22;2166;49.926;8.608;2022-12-18T04:10:54;-7.50;80.80
4306;DHT22;2166;49.926;8.608;2022-12-18T04:13:27;-7.50;81.00
4306;DHT22;2166;49.926;8.608;2022-12-18T04:15:58;-7.40;81.00
4306;DHT22;2166;49.926;8.608;2022-12-18T04:18:27;-7.40;81.00
4306;DHT22;2166;49.926;8.608;2022-12-18T04:20:55;-7.40;81.00
4306;DHT22;2166;49.926;8.608;2022-12-18T04:23:24;-7.40;80.80
4306;DHT22;2166;49.926;8.608;2022-12-18T04:25:56;-7.40;80.70
4306;DHT22;2166;49.926;8.608;2022-12-18T04:28:42;-7.40;80.60
4306;DHT22;2166;49.926;8.608;2022-12-18T04:31:11;-7.40;80.70
4306;DHT22;2166;49.926;8.608;2022-12-18T04:33:40;-7.30;81.10
4306;DHT22;2166;49.926;8.608;2022-12-18T04:36:09;-7.30;81.20
4306;DHT22;2166;49.926;8.608;2022-12-18T04:38:40;-7.30;81.30
4306;DHT22;2166;49.926;8.608;2022-12-18T04:41:12;-7.20;81.40
4306;DHT22;2166;49.926;8.608;2022-12-18T04:43:44;-7.20;81.30
4306;DHT22;2166;49.926;8.608;2022-12-18T04:46:12;-7.20;81.30
4306;DHT22;2166;49.926;8.608;2022-12-18T04:48:41;-7.20;81.20
4306;DHT22;2166;49.926;8.608;2022-12-18T04:51:09;-7.10;81.20
4306;DHT22;2166;49.926;8.608;2022-12-18T04:53:38;-7.10;81.20
4306;DHT22;2166;49.926;8.608;2022-12-18T04:56:08;-7.10;81.30
4306;DHT22;2166;49.926;8.608;2022-12-18T04:58:36;-7.10;81.10
4306;DHT22;2166;49.926;8.608;2022-12-18T05:01:07;-7.00;81.30
4306;DHT22;2166;49.926;8.608;2022-12-18T05:03:35;-7.00;81.50
4306;DHT22;2166;49.926;8.608;2022-12-18T05:06:04;-7.00;81.30
4306;DHT22;2166;49.926;8.608;2022-12-18T05:08:33;-6.90;81.30
4306;DHT22;2166;49.926;8.608;2022-12-18T05:11:01;-6.90;81.30
4306;DHT22;2166;49.926;8.608;2022-12-18T05:13:33;-6.90;81.30
4306;DHT22;2166;49.926;8.608;2022-12-18T05:16:02;-6.90;81.60
4306;DHT22;2166;49.926;8.608;2022-12-18T05:18:32;-6.90;81.50
4306;DHT22;2166;49.926;8.608;2022-12-18T05:21:00;-6.90;81.30
4306;DHT22;2166;49.926;8.608;2022-12-18T05:23:28;-6.90;81.10
4306;DHT22;2166;49.926;8.608;2022-12-18T05:25:57;-6.90;81.10
4306;DHT22;2166;49.926;8.608;2022-12-18T05:28:26;-6.90;81.10
4306;DHT22;2166;49.926;8.608;2022-12-18T05:30:56;-7.00;80.90
4306;DHT22;2166;49.926;8.608;2022-12-18T05:33:27;-7.00;80.90
4306;DHT22;2166;49.926;8.608;2022-12-18T05:35:59;-7.10;80.70
4306;DHT22;2166;49.926;8.608;2022-12-18T05:38:30;-7.10;81.10
4306;DHT22;2166;49.926;8.608;2022-12-18T05:40:59;-7.10;81.00
4306;DHT22;2166;49.926;8.608;2022-12-18T05:43:27;-7.20;81.00
4306;DHT22;2166;49.926;8.608;2022-12-18T05:45:56;-7.20;80.90
4306;DHT22;2166;49.926;8.608;2022-12-18T05:48:24;-7.20;80.80
4306;DHT22;2166;49.926;8.608;2022-12-18T05:50:52;-7.30;80.80
4306;DHT22;2166;49.926;8.608;2022-12-18T05:53:22;-7.30;80.80
4306;DHT22;2166;49.926;8.608;2022-12-18T05:55:50;-7.30;80.80
4306;DHT22;2166;49.926;8.608;2022-12-18T05:58:19;-7.30;80.80
4306;DHT22;2166;49.926;8.608;2022-12-18T06:00:47;-7.30;81.00
4306;DHT22;2166;49.926;8.608;2022-12-18T06:03:16;-7.30;81.00
4306;DHT22;2166;49.926;8.608;2022-12-18T06:05:45;-7.30;81.00
4306;DHT22;2166;49.926;8.608;2022-12-18T06:08:13;-7.30;80.60
4306;DHT22;2166;49.926;8.608;2022-12-18T06:10:48;-7.30;80.60
4306;DHT22;2166;49.926;8.608;2022-12-18T06:13:18;-7.30;80.40
4306;DHT22;2166;49.926;8.608;2022-12-18T06:15:46;-7.40;80.40
4306;DHT22;2166;49.926;8.608;2022-12-18T06:18:14;-7.40;80.50
4306;DHT22;2166;49.926;8.608;2022-12-18T06:20:43;-7.50;80.50
4306;DHT22;2166;49.926;8.608;2022-12-18T06:23:13;-7.50;80.50
4306;DHT22;2166;49.926;8.608;2022-12-18T06:25:49;-7.50;80.50
4306;DHT22;2166;49.926;8.608;2022-12-18T06:28:17;-7.50;80.40
4306;DHT22;2166;49.926;8.608;2022-12-18T06:30:46;-7.50;80.50
4306;DHT22;2166;49.926;8.608;2022-12-18T06:33:15;-7.50;80.80
4306;DHT22;2166;49.926;8.608;2022-12-18T06:35:43;-7.50;80.90
4306;DHT22;2166;49.926;8.608;2022-12-18T06:38:12;-7.50;80.80
4306;DHT22;2166;49.926;8.608;2022-12-18T06:40:40;-7.50;80.80
4306;DHT22;2166;49.926;8.608;2022-12-18T06:43:09;-7.60;80.60
4306;DHT22;2166;49.926;8.608;2022-12-18T06:45:37;-7.50;80.60
4306;DHT22;2166;49.926;8.608;2022-12-18T06:48:05;-7.60;80.60
4306;DHT22;2166;49.926;8.608;2022-12-18T06:50:34;-7.60;80.60
4306;DHT22;2166;49.926;8.608;2022-12-18T06:53:02;-7.60;80.50
4306;DHT22;2166;49.926;8.608;2022-12-18T06:55:32;-7.70;80.20
4306;DHT22;2166;49.926;8.608;2022-12-18T06:58:00;-7.80;80.20
4306;DHT22;2166;49.926;8.608;2022-12-18T07:00:30;-7.80;80.70
4306;DHT22;2166;49.926;8.608;2022-12-18T07:02:58;-7.80;80.70
4306;DHT22;2166;49.926;8.608;2022-12-18T07:05:26;-7.80;80.80
4306;DHT22;2166;49.926;8.608;2022-12-18T07:07:54;-7.80;80.90
4306;DHT22;2166;49.926;8.608;2022-12-18T07:10:22;-7.80;80.70
4306;DHT22;2166;49.926;8.608;2022-12-18T07:12:51;-7.80;80.80
4306;DHT22;2166;49.926;8.608;2022-12-18T07:15:19;-7.70;81.00
4306;DHT22;2166;49.926;8.608;2022-12-18T07:17:49;-7.70;81.00
4306;DHT22;2166;49.926;8.608;2022-12-18T07:20:17;-7.70;80.80
4306;DHT22;2166;49.926;8.608;2022-12-18T07:22:46;-7.70;80.50
4306;DHT22;2166;49.926;8.608;2022-12-18T07:25:24;-7.80;80.10
4306;DHT22;2166;49.926;8.608;2022-12-18T07:27:53;-7.90;80.20
4306;DHT22;2166;49.926;8.608;2022-12-18T07:30:22;-8.00;80.30
4306;DHT22;2166;49.926;8.608;2022-12-18T07:32:52;-8.10;80.20
4306;DHT22;2166;49.926;8.608;2022-12-18T07:35:20;-8.20;80.10
4306;DHT22;2166;49.926;8.608;2022-12-18T07:37:52;-8.20;80.10
4306;DHT22;2166;49.926;8.608;2022-12-18T07:40:21;-8.10;80.30
4306;DHT22;2166;49.926;8.608;2022-12-18T07:42:49;-8.00;80.50
4306;DHT22;2166;49.926;8.608;2022-12-18T07:45:17;-7.90;80.70
4306;DHT22;2166;49.926;8.608;2022-12-18T07:47:46;-7.80;80.30
4306;DHT22;2166;49.926;8.608;2022-12-18T07:50:17;-7.50;80.60
4306;DHT22;2166;49.926;8.608;2022-12-18T07:52:45;-7.20;81.60
4306;DHT22;2166;49.926;8.608;2022-12-18T07:55:13;-6.90;80.80
4306;DHT22;2166;49.926;8.608;2022-12-18T07:57:41;-6.50;80.30
4306;DHT22;2166;49.926;8.608;2022-12-18T08:00:23;-6.00;81.60
4306;DHT22;2166;49.926;8.608;2022-12-18T08:02:51;-5.50;82.50
4306;DHT22;2166;49.926;8.608;2022-12-18T08:05:21;-5.10;82.80
4306;DHT22;2166;49.926;8.608;2022-12-18T08:07:50;-4.70;82.10
4306;DHT22;2166;49.926;8.608;2022-12-18T08:10:18;-4.60;80.20
4306;DHT22;2166;49.926;8.608;2022-12-18T08:12:48;-4.60;77.80
4306;DHT22;2166;49.926;8.608;2022-12-18T08:15:17;-4.70;76.70
4306;DHT22;2166;49.926;8.608;2022-12-18T08:17:45;-4.90;76.20
4306;DHT22;2166;49.926;8.608;2022-12-18T08:20:13;-4.70;76.30
4306;DHT22;2166;49.926;8.608;2022-12-18T08:22:49;-4.60;76.80
4306;DHT22;2166;49.926;8.608;2022-12-18T08:25:17;-4.70;76.20
4306;DHT22;2166;49.926;8.608;2022-12-18T08:27:45;-4.70;75.00
4306;DHT22;2166;49.926;8.608;2022-12-18T08:30:13;-4.20;76.60
4306;DHT22;2166;49.926;8.608;2022-12-18T08:32:42;-3.30;79.50
4306;DHT22;2166;49.926;8.608;2022-12-18T08:35:09;-2.60;79.90
4306;DHT22;2166;49.926;8.608;2022-12-18T08:37:38;-2.00;78.70
4306;DHT22;2166;49.926;8.608;2022-12-18T08:40:10;-1.40;76.30
4306;DHT22;2166;49.926;8.608;2022-12-18T08:42:41;-0.60;77.60
4306;DHT22;2166;49.926;8.608;2022-12-18T08:45:27;0.20;77.80
4306;DHT22;2166;49.926;8.608;2022-12-18T08:47:57;0.80;76.30
4306;DHT22;2166;49.926;8.608;2022-12-18T08:50:25;1.20;74.70
4306;DHT22;2166;49.926;8.608;2022-12-18T08:52:53;1.60;73.20
4306;DHT22;2166;49.926;8.608;2022-12-18T08:55:25;2.00;75.20
4306;DHT22;2166;49.926;8.608;2022-12-18T08:57:53;2.40;72.80
4306;DHT22;2166;49.926;8.608;2022-12-18T09:00:23;2.50;67.60
4306;DHT22;2166;49.926;8.608;2022-12-18T09:02:52;2.60;66.60
4306;DHT22;2166;49.926;8.608;2022-12-18T09:05:20;2.60;62.70
4306;DHT22;2166;49.926;8.608;2022-12-18T09:07:49;2.60;58.80
4306;DHT22;2166;49.926;8.608;2022-12-18T09:10:18;2.30;60.00
4306;DHT22;2166;49.926;8.608;2022-12-18T09:12:49;1.80;60.90
4306;DHT22;2166;49.926;8.608;2022-12-18T09:15:17;2.30;63.20
4306;DHT22;2166;49.926;8.608;2022-12-18T09:17:46;2.90;68.00
4306;DHT22;2166;49.926;8.608;2022-12-18T09:20:15;3.60;69.70
4306;DHT22;2166;49.926;8.608;2022-12-18T09:22:44;4.70;68.10
4306;DHT22;2166;49.926;8.608;2022-12-18T09:25:15;5.80;63.60
4306;DHT22;2166;49.926;8.608;2022-12-18T09:27:46;6.60;56.60
4306;DHT22;2166;49.926;8.608;2022-12-18T09:30:16;7.20;56.00
4306;DHT22;2166;49.926;8.608;2022-12-18T09:32:44;7.70;55.00
4306;DHT22;2166;49.926;8.608;2022-12-18T09:35:12;8.30;51.70
4306;DHT22;2166;49.926;8.608;2022-12-18T09:37:40;8.80;52.60
4306;DHT22;2166;49.926;8.608;2022-12-18T09:40:12;9.20;52.90
4306;DHT22;2166;49.926;8.608;2022-12-18T09:42:41;9.70;53.00
4306;DHT22;2166;49.926;8.608;2022-12-18T09:45:12;10.20;52.00
4306;DHT22;2166;49.926;8.608;2022-12-18T09:47:43;10.80;52.30
4306;DHT22;2166;49.926;8.608;2022-12-18T09:50:16;11.30;50.40
4306;DHT22;2166;49.926;8.608;2022-12-18T09:52:50;11.70;49.00
4306;DHT22;2166;49.926;8.608;2022-12-18T09:55:22;11.90;47.30
4306;DHT22;2166;49.926;8.608;2022-12-18T09:57:52;12.10;47.20
4306;DHT22;2166;49.926;8.608;2022-12-18T10:00:21;12.00;45.60
4306;DHT22;2166;49.926;8.608;2022-12-18T10:02:56;12.00;45.00
4306;DHT22;2166;49.926;8.608;2022-12-18T10:05:29;11.80;46.10
4306;DHT22;2166;49.926;8.608;2022-12-18T10:08:02;11.10;43.50
4306;DHT22;2166;49.926;8.608;2022-12-18T10:10:37;9.90;44.50
4306;DHT22;2166;49.926;8.608;2022-12-18T10:13:12;9.00;46.50
4306;DHT22;2166;49.926;8.608;2022-12-18T10:15:47;8.10;47.00
4306;DHT22;2166;49.926;8.608;2022-12-18T10:18:29;7.40;49.30
4306;DHT22;2166;49.926;8.608;2022-12-18T10:21:03;6.40;50.60
4306;DHT22;2166;49.926;8.608;2022-12-18T10:23:37;5.50;52.50
4306;DHT22;2166;49.926;8.608;2022-12-18T10:26:14;5.00;54.20
4306;DHT22;2166;49.926;8.608;2022-12-18T10:28:43;4.10;55.90
4306;DHT22;2166;49.926;8.608;2022-12-18T10:31:12;3.60;57.90
4306;DHT22;2166;49.926;8.608;2022-12-18T10:33:44;3.60;57.90
4306;DHT22;2166;49.926;8.608;2022-12-18T10:36:12;3.20;58.90
4306;DHT22;2166;49.926;8.608;2022-12-18T10:38:40;2.70;60.10
4306;DHT22;2166;49.926;8.608;2022-12-18T10:41:23;2.20;61.40
4306;DHT22;2166;49.926;8.608;2022-12-18T10:44:10;2.10;62.00
4306;DHT22;2166;49.926;8.608;2022-12-18T10:46:39;1.70;63.50
4306;DHT22;2166;49.926;8.608;2022-12-18T10:49:18;1.30;63.70
4306;DHT22;2166;49.926;8.608;2022-12-18T10:51:47;0.90;65.70
4306;DHT22;2166;49.926;8.608;2022-12-18T10:54:17;0.80;67.30
4306;DHT22;2166;49.926;8.608;2022-12-18T10:56:45;0.60;67.00
4306;DHT22;2166;49.926;8.608;2022-12-18T10:59:14;0.50;67.80
4306;DHT22;2166;49.926;8.608;2022-12-18T11:01:47;0.60;69.20
4306;DHT22;2166;49.926;8.608;2022-12-18T11:04:22;0.40;68.00
4306;DHT22;2166;49.926;8.608;2022-12-18T11:06:52;0.40;68.60
4306;DHT22;2166;49.926;8.608;2022-12-18T11:09:24;0.30;69.10
4306;DHT22;2166;49.926;8.608;2022-12-18T11:11:53;0.50;68.80
4306;DHT22;2166;49.926;8.608;2022-12-18T11:14:23;0.70;68.80
4306;DHT22;2166;49.926;8.608;2022-12-18T11:16:52;1.20;68.50
4306;DHT22;2166;49.926;8.608;2022-12-18T11:19:43;1.70;66.60
4306;DHT22;2166;49.926;8.608;2022-12-18T11:22:19;2.30;64.00
4306;DHT22;2166;49.926;8.608;2022-12-18T11:24:52;2.50;63.40
4306;DHT22;2166;49.926;8.608;2022-12-18T11:27:41;2.20;62.10
4306;DHT22;2166;49.926;8.608;2022-12-18T11:30:20;2.10;63.00
4306;DHT22;2166;49.926;8.608;2022-12-18T11:32:49;2.00;63.70
4306;DHT22;2166;49.926;8.608;2022-12-18T11:35:20;2.20;64.50
4306;DHT22;2166;49.926;8.608;2022-12-18T11:37:54;2.50;64.30
4306;DHT22;2166;49.926;8.608;2022-12-18T11:40:26;2.50;63.00
4306;DHT22;2166;49.926;8.608;2022-12-18T11:42:58;2.20;63.40
4306;DHT22;2166;49.926;8.608;2022-12-18T11:45:31;2.00;64.90
4306;DHT22;2166;49.926;8.608;2022-12-18T11:48:04;1.90;65.10
4306;DHT22;2166;49.926;8.608;2022-12-18T11:50:41;2.00;65.40
4306;DHT22;2166;49.926;8.608;2022-12-18T11:53:11;2.10;65.40
4306;DHT22;2166;49.926;8.608;2022-12-18T11:55:41;2.40;63.80
4306;DHT22;2166;49.926;8.608;2022-12-18T11:58:13;2.40;63.80
4306;DHT22;2166;49.926;8.608;2022-12-18T12:00:48;2.50;64.40
4306;DHT22;2166;49.926;8.608;2022-12-18T12:03:24;2.70;63.90
4306;DHT22;2166;49.926;8.608;2022-12-18T12:06:09;2.80;63.70
4306;DHT22;2166;49.926;8.608;2022-12-18T12:08:48;2.90;63.10
4306;DHT22;2166;49.926;8.608;2022-12-18T12:11:27;3.00;62.80
4306;DHT22;2166;49.926;8.608;2022-12-18T12:14:03;3.00;63.10
4306;DHT22;2166;49.926;8.608;2022-12-18T12:16:36;2.70;63.20
4306;DHT22;2166;49.926;8.608;2022-12-18T12:19:13;2.10;64.30
4306;DHT22;2166;49.926;8.608;2022-12-18T12:21:48;1.80;65.80
4306;DHT22;2166;49.926;8.608;2022-12-18T12:24:22;1.50;67.90
4306;DHT22;2166;49.926;8.608;2022-12-18T12:26:53;1.20;68.30
4306;DHT22;2166;49.926;8.608;2022-12-18T12:29:27;1.00;69.00
4306;DHT22;2166;49.926;8.608;2022-12-18T12:32:07;0.70;70.80
4306;DHT22;2166;49.926;8.608;2022-12-18T12:34:43;0.40;71.70
4306;DHT22;2166;49.926;8.608;2022-12-18T12:37:24;0.50;72.10
4306;DHT22;2166;49.926;8.608;2022-12-18T12:39:57;0.60;72.80
4306;DHT22;2166;49.926;8.608;2022-12-18T12:42:41;0.40;71.70
4306;DHT22;2166;49.926;8.608;2022-12-18T12:45:30;-0.10;72.50
4306;DHT22;2166;49.926;8.608;2022-12-18T12:48:01;-0.40;73.50
4306;DHT22;2166;49.926;8.608;2022-12-18T12:50:31;-0.60;74.10
4306;DHT22;2166;49.926;8.608;2022-12-18T12:53:05;-0.70;74.10
4306;DHT22;2166;49.926;8.608;2022-12-18T12:55:34;-1.00;74.60
4306;DHT22;2166;49.926;8.608;2022-12-18T12:58:05;-1.10;74.90
4306;DHT22;2166;49.926;8.608;2022-12-18T13:00:39;-1.10;75.00
4306;DHT22;2166;49.926;8.608;2022-12-18T13:03:11;-1.40;75.00
4306;DHT22;2166;49.926;8.608;2022-12-18T13:05:42;-1.60;75.50
4306;DHT22;2166;49.926;8.608;2022-12-18T13:08:22;-1.70;75.50
4306;DHT22;2166;49.926;8.608;2022-12-18T13:10:51;-1.60;75.50
4306;DHT22;2166;49.926;8.608;2022-12-18T13:13:49;-1.40;75.70
4306;DHT22;2166;49.926;8.608;2022-12-18T13:16:18;-1.20;75.80
4306;DHT22;2166;49.926;8.608;2022-12-18T13:18:48;-1.20;75.40
4306;DHT22;2166;49.926;8.608;2022-12-18T13:21:21;-1.30;75.30
4306;DHT22;2166;49.926;8.608;2022-12-18T13:23:53;-1.40;75.50
4306;DHT22;2166;49.926;8.608;2022-12-18T13:26:29;-1.40;75.70
4306;DHT22;2166;49.926;8.608;2022-12-18T13:29:00;-1.50;76.00
4306;DHT22;2166;49.926;8.608;2022-12-18T13:34:23;-1.50;76.20
4306;DHT22;2166;49.926;8.608;2022-12-18T13:36:55;-1.50;76.40
4306;DHT22;2166;49.926;8.608;2022-12-18T13:39:31;-1.50;76.30
4306;DHT22;2166;49.926;8.608;2022-12-18T13:47:48;-1.60;76.20
4306;DHT22;2166;49.926;8.608;2022-12-18T13:50:20;-1.70;76.40
4306;DHT22;2166;49.926;8.608;2022-12-18T13:52:50;-1.80;76.60
4306;DHT22;2166;49.926;8.608;2022-12-18T13:55:21;-1.80;76.70
4306;DHT22;2166;49.926;8.608;2022-12-18T13:58:02;-1.80;76.90
4306;DHT22;2166;49.926;8.608;2022-12-18T14:00:31;-1.90;77.10
4306;DHT22;2166;49.926;8.608;2022-12-18T14:03:00;-1.90;77.10
4306;DHT22;2166;49.926;8.608;2022-12-18T14:05:29;-1.90;77.30
4306;DHT22;2166;49.926;8.608;2022-12-18T14:07:59;-2.00;77.30
4306;DHT22;2166;49.926;8.608;2022-12-18T14:10:36;-2.10;77.50
4306;DHT22;2166;49.926;8.608;2022-12-18T14:13:16;-2.10;77.70
4306;DHT22;2166;49.926;8.608;2022-12-18T14:15:46;-2.10;77.70
4306;DHT22;2166;49.926;8.608;2022-12-18T14:18:18;-2.20;77.60
4306;DHT22;2166;49.926;8.608;2022-12-18T14:20:48;-2.20;77.70
4306;DHT22;2166;49.926;8.608;2022-12-18T14:23:26;-2.20;78.00
4306;DHT22;2166;49.926;8.608;2022-12-18T14:25:57;-2.20;78.20
4306;DHT22;2166;49.926;8.608;2022-12-18T14:28:32;-2.20;78.20
4306;DHT22;2166;49.926;8.608;2022-12-18T14:31:03;-2.20;78.10
4306;DHT22;2166;49.926;8.608;2022-12-18T14:33:31;-2.30;78.20
4306;DHT22;2166;49.926;8.608;2022-12-18T14:36:01;-2.40;78.30
4306;DHT22;2166;49.926;8.608;2022-12-18T14:38:29;-2.40;78.50
4306;DHT22;2166;49.926;8.608;2022-12-18T14:41:00;-2.50;78.80
4306;DHT22;2166;49.926;8.608;2022-12-18T14:43:29;-2.40;78.90
4306;DHT22;2166;49.926;8.608;2022-12-18T14:45:59;-2.40;79.00
4306;DHT22;2166;49.926;8.608;2022-12-18T14:48:34;-2.50;79.10
4306;DHT22;2166;49.926;8.608;2022-12-18T14:51:04;-2.50;78.90
4306;DHT22;2166;49.926;8.608;2022-12-18T14:53:35;-2.50;79.10
4306;DHT22;2166;49.926;8.608;2022-12-18T14:56:17;-2.50;79.10
4306;DHT22;2166;49.926;8.608;2022-12-18T14:58:47;-2.60;79.10
4306;DHT22;2166;49.926;8.608;2022-12-18T15:01:26;-2.60;79.20
4306;DHT22;2166;49.926;8.608;2022-12-18T15:03:56;-2.60;79.30
4306;DHT22;2166;49.926;8.608;2022-12-18T15:06:29;-2.60;79.20
4306;DHT22;2166;49.926;8.608;2022-12-18T15:09:00;-2.60;79.40
4306;DHT22;2166;49.926;8.608;2022-12-18T15:11:34;-2.60;79.50
4306;DHT22;2166;49.926;8.608;2022-12-18T15:14:21;-2.60;79.50
4306;DHT22;2166;49.926;8.608;2022-12-18T15:16:52;-2.60;79.50
4306;DHT22;2166;49.926;8.608;2022-12-18T15:19:21;-2.60;79.50
4306;DHT22;2166;49.926;8.608;2022-12-18T15:21:50;-2.70;79.60
4306;DHT22;2166;49.926;8.608;2022-12-18T15:24:20;-2.70;79.90
4306;DHT22;2166;49.926;8.608;2022-12-18T15:26:53;-2.70;80.00
4306;DHT22;2166;49.926;8.608;2022-12-18T15:29:24;-2.70;80.00
4306;DHT22;2166;49.926;8.608;2022-12-18T15:32:00;-2.80;80.10
4306;DHT22;2166;49.926;8.608;2022-12-18T15:34:31;-2.80;80.20
4306;DHT22;2166;49.926;8.608;2022-12-18T15:37:00;-2.80;80.20
4306;DHT22;2166;49.926;8.608;2022-12-18T15:39:29;-2.80;80.20
4306;DHT22;2166;49.926;8.608;2022-12-18T15:41:59;-2.80;80.30
4306;DHT22;2166;49.926;8.608;2022-12-18T15:44:45;-2.80;80.30
4306;DHT22;2166;49.926;8.608;2022-12-18T15:47:15;-2.90;80.30
4306;DHT22;2166;49.926;8.608;2022-12-18T15:49:43;-2.90;80.40
4306;DHT22;2166;49.926;8.608;2022-12-18T15:52:12;-2.90;80.40
4306;DHT22;2166;49.926;8.608;2022-12-18T15:54:53;-3.00;80.50
4306;DHT22;2166;49.926;8.608;2022-12-18T15:57:42;-3.00;80.70
4306;DHT22;2166;49.926;8.608;2022-12-18T16:00:12;-3.00;80.70
4306;DHT22;2166;49.926;8.608;2022-12-18T16:02:40;-3.00;80.70
4306;DHT22;2166;49.926;8.608;2022-12-18T16:05:13;-3.00;80.70
4306;DHT22;2166;49.926;8.608;2022-12-18T16:07:44;-2.90;80.70
4306;DHT22;2166;49.926;8.608;2022-12-18T16:10:12;-2.90;80.70
4306;DHT22;2166;49.926;8.608;2022-12-18T16:12:46;-2.80;80.70
4306;DHT22;2166;49.926;8.608;2022-12-18T16:15:14;-2.80;80.60
4306;DHT22;2166;49.926;8.608;2022-12-18T16:17:50;-2.70;80.60
4306;DHT22;2166;49.926;8.608;2022-12-18T16:20:19;-2.70;80.60
4306;DHT22;2166;49.926;8.608;2022-12-18T16:22:48;-2.60;80.50
4306;DHT22;2166;49.926;8.608;2022-12-18T16:25:18;-2.60;80.30
4306;DHT22;2166;49.926;8.608;2022-12-18T16:27:48;-2.60;80.20
4306;DHT22;2166;49.926;8.608;2022-12-18T16:30:19;-2.60;80.10
4306;DHT22;2166;49.926;8.608;2022-12-18T16:33:04;-2.60;80.10
4306;DHT22;2166;49.926;8.608;2022-12-18T16:35:33;-2.60;80.00
4306;DHT22;2166;49.926;8.608;2022-12-18T16:38:03;-2.70;79.90
4306;DHT22;2166;49.926;8.608;2022-12-18T16:40:33;-2.70;80.20
4306;DHT22;2166;49.926;8.608;2022-12-18T16:43:23;-2.70;80.20
4306;DHT22;2166;49.926;8.608;2022-12-18T16:45:51;-2.70;80.30
4306;DHT22;2166;49.926;8.608;2022-12-18T16:48:25;-2.70;80.40
4306;DHT22;2166;49.926;8.608;2022-12-18T16:50:56;-2.70;80.30
4306;DHT22;2166;49.926;8.608;2022-12-18T16:53:27;-2.70;80.30
4306;DHT22;2166;49.926;8.608;2022-12-18T16:55:56;-2.70;80.30
4306;DHT22;2166;49.926;8.608;2022-12-18T16:58:29;-2.60;80.40
4306;DHT22;2166;49.926;8.608;2022-12-18T17:00:57;-2.60;80.30